Gdf Suez North Sea — HPSQ — position and weather

sailwx.info

Track history (hours):
 
Tides and Currents Weather Stations Pressure Air Temp Water Temp Dewpoint Dewpoint Depression Visibility Wind Speed Wind Dir Waves Ship Positions

Gdf Suez North Sea

Last reported at 2014-Aug-03 11:33 UTC. Time now 2014-Aug-20 14:37 UTC.
Position N 01°11' E 103°50'.
Warning: this ship's position is 17 days out of date.

Length 190 m; draft 9.6 m.

Type: Ship. MMSI: 373341000.

Date/timePositionNaut miles runAvg speedWind from/ knotsBaromVisibWave heightAir tempDewpointWater temp
2014-Aug-03 11:33N 01°11' E 103°50'9 8.7
2014-Aug-03 10:33N 01°16' E 103°58'2 2.1
2014-Aug-03 09:33N 01°17' E 103°59'0 0.1
2014-Aug-03 08:33N 01°17' E 103°59'0 0.0
2014-Aug-03 07:33N 01°17' E 103°59'0 0.0
2014-Aug-03 06:33N 01°17' E 103°59'0 0.1
2014-Aug-03 05:30N 01°17' E 103°59'0 0.0
2014-Aug-03 04:33N 01°17' E 103°59'0 0.1
2014-Aug-03 03:33N 01°17' E 103°59'0 0.0
2014-Aug-03 02:33N 01°17' E 103°59'0 0.0
2014-Aug-03 01:33N 01°17' E 103°59'0 0.0
2014-Aug-03 00:33N 01°17' E 103°59'0 0.0
2014-Aug-02 23:33N 01°17' E 103°59'1 1.3
2014-Aug-02 22:33N 01°16' E 103°59'7 7.3
2014-Aug-02 21:33N 01°17' E 104°06'  
2014-Jul-24 13:32N 33°39' E 132°19'1212.3
2014-Jul-24 12:33N 33°47' E 132°29'  
Track history (hours):
 
Tides and Currents Weather Stations Pressure Air Temp Water Temp Dewpoint Dewpoint Depression Visibility Wind Speed Wind Dir Waves Ship Positions

Gdf Suez North Sea

Last reported at 2014-Aug-03 11:33 UTC. Time now 2014-Aug-20 14:37 UTC.
Position N 01°11' E 103°50'.
Warning: this ship's position is 17 days out of date.

Length 190 m; draft 9.6 m.

Type: Ship. MMSI: 373341000.

Date/timePositionNaut miles runAvg speedWind from/ knotsBaromVisibWave heightAir tempDewpointWater temp
2014-Aug-03 11:33N 01°11' E 103°50'9 8.7
2014-Aug-03 10:33N 01°16' E 103°58'2 2.1
2014-Aug-03 09:33N 01°17' E 103°59'0 0.1
2014-Aug-03 08:33N 01°17' E 103°59'0 0.0
2014-Aug-03 07:33N 01°17' E 103°59'0 0.0
2014-Aug-03 06:33N 01°17' E 103°59'0 0.1
2014-Aug-03 05:30N 01°17' E 103°59'0 0.0
2014-Aug-03 04:33N 01°17' E 103°59'0 0.1
2014-Aug-03 03:33N 01°17' E 103°59'0 0.0
2014-Aug-03 02:33N 01°17' E 103°59'0 0.0
2014-Aug-03 01:33N 01°17' E 103°59'0 0.0
2014-Aug-03 00:33N 01°17' E 103°59'0 0.0
2014-Aug-02 23:33N 01°17' E 103°59'1 1.3
2014-Aug-02 22:33N 01°16' E 103°59'7 7.3
2014-Aug-02 21:33N 01°17' E 104°06'  
2014-Jul-24 13:32N 33°39' E 132°19'1212.3
2014-Jul-24 12:33N 33°47' E 132°29'  

Dump ship's entire track history